createdAt,value
2022-09-02T00:01:54.945Z,101607.81
2022-09-02T00:04:24.625Z,101607.81
2022-09-02T00:06:53.933Z,101574.38
2022-09-02T00:09:22.427Z,101611.22
2022-09-02T00:11:51.024Z,101608.50
2022-09-02T00:14:22.488Z,101603.25
2022-09-02T00:16:52.673Z,101602.91
2022-09-02T00:19:25.205Z,101585.41
2022-09-02T00:21:53.945Z,101599.44
2022-09-02T00:24:21.338Z,101602.38
2022-09-02T00:26:47.845Z,101598.47
2022-09-02T00:29:15.417Z,101603.88
2022-09-02T00:31:43.771Z,101599.53
2022-09-02T00:34:10.845Z,101602.81
2022-09-02T00:36:38.166Z,101597.69
2022-09-02T00:39:07.507Z,101597.31
2022-09-02T00:41:35.003Z,101590.31
2022-09-02T00:44:05.702Z,101593.03
2022-09-02T00:46:33.569Z,101588.44
2022-09-02T00:49:43.726Z,101580.16
2022-09-02T00:52:26.057Z,101582.47
2022-09-02T00:55:02.573Z,101580.22
2022-09-02T00:57:34.059Z,101567.63
2022-09-02T01:00:12.202Z,101580.47
2022-09-02T01:02:41.672Z,101577.81
2022-09-02T01:05:12.609Z,101577.44
2022-09-02T01:07:39.989Z,101574.72
2022-09-02T01:10:10.817Z,101577.03
2022-09-02T01:12:38.155Z,101573.94
2022-09-02T01:15:07.255Z,101559.50
2022-09-02T01:17:34.837Z,101573.41
2022-09-02T01:20:12.118Z,101571.97
2022-09-02T01:22:39.930Z,101568.00
2022-09-02T01:25:12.293Z,101566.75
2022-09-02T01:27:39.476Z,101562.38
2022-09-02T01:30:08.284Z,101557.91
2022-09-02T01:32:34.900Z,101571.41
2022-09-02T01:35:01.533Z,101565.00
2022-09-02T01:37:28.255Z,101560.06
2022-09-02T01:39:56.017Z,101562.31
2022-09-02T01:42:22.591Z,101553.38
2022-09-02T01:44:49.096Z,101561.28
2022-09-02T01:47:19.341Z,101556.31
2022-09-02T01:49:46.597Z,101548.88
2022-09-02T01:52:14.638Z,101551.78
2022-09-02T01:54:41.577Z,101552.22
2022-09-02T01:57:08.897Z,101547.28
2022-09-02T01:59:35.319Z,101551.22
2022-09-02T02:02:02.529Z,101544.78
2022-09-02T02:04:29.064Z,101542.31
2022-09-02T02:06:56.810Z,101544.41
2022-09-02T02:09:23.926Z,101539.44
2022-09-02T02:11:51.218Z,101544.00
2022-09-02T02:14:18.017Z,101538.88
2022-09-02T02:16:44.661Z,101539.78
2022-09-02T02:19:11.183Z,101537.50
2022-09-02T02:21:37.666Z,101544.16
2022-09-02T02:24:04.248Z,101530.47
2022-09-02T02:26:31.381Z,101535.84
2022-09-02T02:28:59.909Z,101543.81
2022-09-02T02:31:26.654Z,101535.53
2022-09-02T02:33:53.323Z,101527.03
2022-09-02T02:36:20.143Z,101525.59
2022-09-02T02:38:46.791Z,101518.38
2022-09-02T02:41:14.984Z,101519.81
2022-09-02T02:43:42.485Z,101534.75
2022-09-02T02:46:09.195Z,101528.75
2022-09-02T02:48:36.770Z,101525.66
2022-09-02T02:51:04.099Z,101533.75
2022-09-02T02:53:31.338Z,101523.00
2022-09-02T02:55:59.519Z,101533.16
2022-09-02T02:58:26.493Z,101534.00
2022-09-02T03:00:52.951Z,101530.03
2022-09-02T03:03:19.979Z,101530.03
2022-09-02T03:05:47.556Z,101518.28
2022-09-02T03:08:14.017Z,101518.91
2022-09-02T03:10:42.085Z,101523.69
2022-09-02T03:13:11.105Z,101519.97
2022-09-02T03:15:39.111Z,101521.84
2022-09-02T03:18:06.178Z,101518.53
2022-09-02T03:20:32.648Z,101515.38
2022-09-02T03:23:00.491Z,101520.38
2022-09-02T03:25:35.430Z,101499.47
2022-09-02T03:28:04.423Z,101516.25
2022-09-02T03:30:31.689Z,101517.47
2022-09-02T03:33:04.242Z,101511.66
2022-09-02T03:35:32.269Z,101511.91
2022-09-02T03:38:00.515Z,101514.38
2022-09-02T03:40:28.350Z,101509.63
2022-09-02T03:42:59.897Z,101507.13
2022-09-02T03:45:27.429Z,101504.25
2022-09-02T03:47:56.824Z,101505.28
2022-09-02T03:50:30.101Z,101502.59
2022-09-02T03:52:57.764Z,101505.47
2022-09-02T03:55:24.625Z,101505.69
2022-09-02T03:57:52.400Z,101503.22
2022-09-02T04:00:21.241Z,101504.28
2022-09-02T04:02:50.132Z,101506.75
2022-09-02T04:05:17.734Z,101495.16
2022-09-02T04:07:47.133Z,101500.53
2022-09-02T04:10:14.947Z,101490.84
2022-09-02T04:12:41.814Z,101498.66
2022-09-02T04:15:10.142Z,101493.50
2022-09-02T04:17:38.167Z,101493.69
2022-09-02T04:20:07.191Z,101488.94
2022-09-02T04:22:34.221Z,101481.09
2022-09-02T04:25:00.732Z,101481.72
2022-09-02T04:27:27.425Z,101472.59
2022-09-02T04:29:53.977Z,101462.06
2022-09-02T04:32:21.769Z,101475.50
2022-09-02T04:34:49.875Z,101473.22
2022-09-02T04:37:16.906Z,101478.38
2022-09-02T04:39:43.413Z,101479.22
2022-09-02T04:42:10.043Z,101479.22
2022-09-02T04:44:36.502Z,101472.81
2022-09-02T04:47:03.114Z,101480.06
2022-09-02T04:49:32.353Z,101484.22
2022-09-02T04:52:00.153Z,101480.28
2022-09-02T04:54:27.240Z,101477.56
2022-09-02T04:56:53.974Z,101487.50
2022-09-02T04:59:21.332Z,101482.34
2022-09-02T05:01:48.204Z,101480.06
2022-09-02T05:04:14.808Z,101479.00
2022-09-02T05:06:44.401Z,101481.09
2022-09-02T05:09:11.279Z,101476.16
2022-09-02T05:11:38.751Z,101476.16
2022-09-02T05:14:06.845Z,101478.19
2022-09-02T05:16:37.194Z,101481.50
2022-09-02T05:19:05.812Z,101483.38
2022-09-02T05:21:32.328Z,101486.44
2022-09-02T05:24:00.939Z,101480.28
2022-09-02T05:26:27.555Z,101481.28
2022-09-02T05:28:54.076Z,101479.00
2022-09-02T05:31:21.746Z,101481.69
2022-09-02T05:33:48.786Z,101485.66
2022-09-02T05:36:18.281Z,101490.19
2022-09-02T05:38:46.060Z,101489.19
2022-09-02T05:41:23.628Z,101482.53
2022-09-02T05:43:53.168Z,101466.59
2022-09-02T05:46:23.275Z,101488.53
2022-09-02T05:49:06.425Z,101480.69
2022-09-02T05:51:57.812Z,101485.84
2022-09-02T05:54:28.666Z,101473.66
2022-09-02T05:56:57.835Z,101478.81
2022-09-02T05:59:26.947Z,101476.94
2022-09-02T06:01:54.531Z,101473.63
2022-09-02T06:04:22.495Z,101470.31
2022-09-02T06:06:50.414Z,101472.56
2022-09-02T06:09:19.576Z,101467.81
2022-09-02T06:11:49.383Z,101472.97
2022-09-02T06:14:25.389Z,101467.78
2022-09-02T06:16:53.747Z,101466.56
2022-09-02T06:19:21.378Z,101451.47
2022-09-02T06:21:49.219Z,101472.16
2022-09-02T06:24:16.122Z,101461.81
2022-09-02T06:26:43.245Z,101463.44
2022-09-02T06:29:10.759Z,101472.34
2022-09-02T06:31:40.322Z,101466.34
2022-09-02T06:34:06.972Z,101464.47
2022-09-02T06:36:33.481Z,101461.34
2022-09-02T06:39:00.918Z,101451.16
2022-09-02T06:41:31.422Z,101445.56
2022-09-02T06:44:00.658Z,101457.28
2022-09-02T06:46:33.489Z,101455.16
2022-09-02T06:49:00.282Z,101449.72
2022-09-02T06:51:36.324Z,101453.31
2022-09-02T06:54:04.035Z,101454.06
2022-09-02T06:56:30.777Z,101451.53
2022-09-02T06:58:58.288Z,101447.28
2022-09-02T07:01:28.788Z,101455.09
2022-09-02T07:04:14.235Z,101443.63
2022-09-02T07:06:43.571Z,101440.16
2022-09-02T07:09:11.647Z,101440.19
2022-09-02T07:11:38.762Z,101434.97
2022-09-02T07:14:06.590Z,101428.91
2022-09-02T07:16:43.408Z,101403.00
2022-09-02T07:19:15.090Z,101438.06
2022-09-02T07:21:44.251Z,101426.22
2022-09-02T07:24:12.876Z,101436.13
2022-09-02T07:26:40.458Z,101439.47
2022-09-02T07:29:08.791Z,101430.88
2022-09-02T07:31:42.045Z,101436.41
2022-09-02T07:34:09.948Z,101423.88
2022-09-02T07:36:38.225Z,101424.16
2022-09-02T07:39:07.740Z,101410.66
2022-09-02T07:41:35.211Z,101420.34
2022-09-02T07:44:02.651Z,101424.47
2022-09-02T07:46:32.278Z,101415.13
2022-09-02T07:49:04.985Z,101411.84
2022-09-02T07:51:37.678Z,101419.59
2022-09-02T07:54:05.903Z,101413.75
2022-09-02T07:56:32.642Z,101413.16
2022-09-02T07:58:59.081Z,101411.53
2022-09-02T08:01:25.844Z,101416.97
2022-09-02T08:03:52.542Z,101416.75
2022-09-02T08:06:27.747Z,101417.94
2022-09-02T08:09:04.218Z,101414.78
2022-09-02T08:11:32.473Z,101413.28
2022-09-02T08:13:59.445Z,101409.16
2022-09-02T08:16:25.970Z,101408.06
2022-09-02T08:18:52.600Z,101401.25
2022-09-02T08:21:18.991Z,101408.66
2022-09-02T08:23:47.825Z,101394.88
2022-09-02T08:26:14.207Z,101391.69
2022-09-02T08:28:40.631Z,101402.19
2022-09-02T08:31:07.579Z,101404.31
2022-09-02T08:33:34.678Z,101396.88
2022-09-02T08:36:11.124Z,101384.31
2022-09-02T08:38:37.990Z,101398.41
2022-09-02T08:41:24.223Z,101407.75
2022-09-02T08:43:57.155Z,101374.25
2022-09-02T08:46:26.526Z,101393.56
2022-09-02T08:49:08.353Z,101381.81
2022-09-02T08:51:43.641Z,101385.19
2022-09-02T08:54:25.870Z,101360.19
2022-09-02T08:56:52.650Z,101384.34
2022-09-02T08:59:22.527Z,101380.31
2022-09-02T09:02:11.688Z,101392.13
2022-09-02T09:05:06.309Z,101367.84
2022-09-02T09:07:40.510Z,101374.94
2022-09-02T09:10:19.356Z,101374.50
2022-09-02T09:13:01.475Z,101353.03
2022-09-02T09:16:31.963Z,101368.22
2022-09-02T09:19:15.199Z,101372.63
2022-09-02T09:21:43.776Z,101369.91
2022-09-02T09:24:29.048Z,101371.41
2022-09-02T09:26:55.479Z,101363.19
2022-09-02T09:29:22.273Z,101362.84
2022-09-02T09:31:56.149Z,101364.28
2022-09-02T09:34:23.331Z,101370.69
2022-09-02T09:36:54.492Z,101362.47
2022-09-02T09:39:30.315Z,101357.72
2022-09-02T09:42:03.314Z,101355.94
2022-09-02T09:44:45.022Z,101359.91
2022-09-02T09:47:25.584Z,101348.75
2022-09-02T09:49:54.663Z,101360.16
2022-09-02T09:52:27.519Z,101354.50
2022-09-02T09:55:12.811Z,101348.00
2022-09-02T09:57:41.170Z,101352.56
2022-09-02T10:00:21.048Z,101355.06
2022-09-02T10:02:52.911Z,101362.66
2022-09-02T10:05:25.141Z,101358.34
2022-09-02T10:08:10.109Z,101353.78
2022-09-02T10:10:55.993Z,101354.50
2022-09-02T10:13:25.789Z,101324.84
2022-09-02T10:16:26.857Z,101354.66
2022-09-02T10:19:11.983Z,101342.59
2022-09-02T10:21:54.070Z,101358.09
2022-09-02T10:24:45.239Z,101358.56
2022-09-02T10:27:30.867Z,101352.31
2022-09-02T10:30:11.874Z,101357.66
2022-09-02T10:33:19.394Z,101350.44
2022-09-02T10:35:48.878Z,101338.59
2022-09-02T10:38:30.671Z,101333.16
2022-09-02T10:41:08.783Z,101334.06
2022-09-02T10:43:56.740Z,101317.75
2022-09-02T10:46:25.127Z,101325.44
2022-09-02T10:49:04.642Z,101325.44
2022-09-02T10:51:43.261Z,101321.91
2022-09-02T10:55:01.482Z,101323.28
2022-09-02T10:57:37.571Z,101312.09
2022-09-02T11:00:14.670Z,101321.13
2022-09-02T11:03:03.243Z,101322.22
2022-09-02T11:05:37.979Z,101312.66
2022-09-02T11:08:11.955Z,101282.13
2022-09-02T11:11:06.217Z,101314.00
2022-09-02T11:13:43.858Z,101307.97
2022-09-02T11:16:39.744Z,101305.97
2022-09-02T11:19:16.198Z,101301.84
2022-09-02T11:22:08.058Z,101295.84
2022-09-02T11:24:47.897Z,101291.44
2022-09-02T11:27:42.075Z,101284.44
2022-09-02T11:30:39.360Z,101300.22
2022-09-02T11:33:37.422Z,101282.69
2022-09-02T11:36:04.300Z,101280.44
2022-09-02T11:38:44.014Z,101267.66
2022-09-02T11:41:37.195Z,101272.03
2022-09-02T11:44:21.113Z,101281.59
2022-09-02T11:47:06.325Z,101274.34
2022-09-02T11:50:00.967Z,101258.56
2022-09-02T11:52:34.258Z,101262.94
2022-09-02T11:55:16.353Z,101250.34
2022-09-02T11:57:44.058Z,101261.94
2022-09-02T12:00:27.422Z,101257.78
2022-09-02T12:03:35.853Z,101252.66
2022-09-02T12:06:14.158Z,101249.63
2022-09-02T12:08:41.994Z,101246.53
2022-09-02T12:11:09.913Z,101248.22
2022-09-02T12:13:43.438Z,101241.91
2022-09-02T12:16:12.966Z,101235.75
2022-09-02T12:18:42.374Z,101235.28
2022-09-02T12:21:16.608Z,101232.34
2022-09-02T12:23:50.118Z,101221.63
2022-09-02T12:26:18.308Z,101208.56
2022-09-02T12:28:47.108Z,101224.06
2022-09-02T12:31:38.447Z,101216.38
2022-09-02T12:34:25.047Z,101221.22
2022-09-02T12:36:58.546Z,101215.19
2022-09-02T12:39:24.932Z,101217.25
2022-09-02T12:42:06.240Z,101206.59
2022-09-02T12:44:43.707Z,101215.59
2022-09-02T12:47:30.990Z,101212.59
2022-09-02T12:50:10.570Z,101192.16
2022-09-02T12:52:42.503Z,101200.81
2022-09-02T12:55:18.240Z,101198.81
2022-09-02T12:57:47.690Z,101181.59
2022-09-02T13:00:19.530Z,101184.88
2022-09-02T13:03:14.195Z,101185.47
2022-09-02T13:05:40.702Z,101193.25
2022-09-02T13:08:29.091Z,101180.88
2022-09-02T13:10:59.875Z,101179.66
2022-09-02T13:13:44.535Z,101176.44
2022-09-02T13:16:18.985Z,101165.41
2022-09-02T13:19:07.154Z,101173.91
2022-09-02T13:21:59.453Z,101170.84
2022-09-02T13:24:51.080Z,101165.25
2022-09-02T13:27:39.689Z,101159.19
2022-09-02T13:30:43.565Z,101173.44
2022-09-02T13:33:12.099Z,101163.78
2022-09-02T13:35:41.701Z,101149.84
2022-09-02T13:38:13.029Z,101162.91
2022-09-02T13:40:40.800Z,101150.09
2022-09-02T13:43:12.964Z,101153.28
2022-09-02T13:45:40.297Z,101146.16
2022-09-02T13:48:23.044Z,101155.22
2022-09-02T13:50:53.082Z,101145.03
2022-09-02T13:53:53.773Z,101149.63
2022-09-02T13:56:28.235Z,101141.66
2022-09-02T13:58:58.466Z,101137.75
2022-09-02T14:01:31.392Z,101140.72
2022-09-02T14:04:00.333Z,101142.28
2022-09-02T14:06:33.466Z,101132.00
2022-09-02T14:09:02.130Z,101121.94
2022-09-02T14:11:33.456Z,101124.84
2022-09-02T14:14:00.152Z,101125.06
2022-09-02T14:16:34.978Z,101126.53
2022-09-02T14:19:10.740Z,101121.59
2022-09-02T14:21:43.827Z,101118.56
2022-09-02T14:24:13.599Z,101113.31
2022-09-02T14:26:45.954Z,101114.94
2022-09-02T14:29:17.933Z,101116.41
2022-09-02T14:31:45.887Z,101109.06
2022-09-02T14:34:43.500Z,101110.41
2022-09-02T14:37:23.869Z,101100.84
2022-09-02T14:40:12.902Z,101103.56
2022-09-02T14:42:56.819Z,101088.88
2022-09-02T14:45:35.148Z,101082.00
2022-09-02T14:48:19.923Z,101089.44
2022-09-02T14:50:46.485Z,101085.91
2022-09-02T14:53:21.054Z,101085.31
2022-09-02T14:55:55.909Z,101073.28
2022-09-02T14:58:27.328Z,101085.03
2022-09-02T15:00:57.988Z,101069.66
2022-09-02T15:03:25.908Z,101067.78
2022-09-02T15:05:53.711Z,101069.88
2022-09-02T15:08:21.119Z,101072.09
2022-09-02T15:10:48.259Z,101067.66
2022-09-02T15:13:20.017Z,101078.66
2022-09-02T15:15:46.514Z,101073.81
2022-09-02T15:18:14.196Z,101075.50
2022-09-02T15:20:40.712Z,101070.78
2022-09-02T15:23:07.125Z,101068.47
2022-09-02T15:25:34.318Z,101067.72
2022-09-02T15:28:01.599Z,101072.97
2022-09-02T15:30:28.131Z,101068.31
2022-09-02T15:32:54.568Z,101073.84
2022-09-02T15:35:21.161Z,101057.63
2022-09-02T15:37:50.219Z,101060.16
2022-09-02T15:40:16.842Z,101059.34
2022-09-02T15:42:43.327Z,101053.75
2022-09-02T15:45:10.189Z,101049.41
2022-09-02T15:47:38.051Z,101057.97
2022-09-02T15:50:05.954Z,101049.22
2022-09-02T15:52:34.585Z,101030.97
2022-09-02T15:55:02.292Z,101048.28
2022-09-02T15:57:29.951Z,101039.34
2022-09-02T15:59:56.803Z,101036.38
2022-09-02T16:02:23.510Z,101036.84
2022-09-02T16:04:50.082Z,101038.59
2022-09-02T16:07:17.450Z,101036.72
2022-09-02T16:09:44.091Z,101034.53
2022-09-02T16:12:11.168Z,101032.09
2022-09-02T16:14:37.695Z,101032.09
2022-09-02T16:17:04.270Z,101033.50
2022-09-02T16:19:30.723Z,101027.56
2022-09-02T16:21:57.739Z,101020.94
2022-09-02T16:24:24.511Z,101026.34
2022-09-02T16:26:51.415Z,101027.47
2022-09-02T16:29:18.973Z,101018.19
2022-09-02T16:32:01.872Z,101022.59
2022-09-02T16:34:33.699Z,101014.09
2022-09-02T16:37:00.716Z,101016.25
2022-09-02T16:39:27.246Z,101013.56
2022-09-02T16:41:54.509Z,101021.53
2022-09-02T16:44:23.578Z,101022.34
2022-09-02T16:46:51.609Z,101014.72
2022-09-02T16:49:20.736Z,100994.06
2022-09-02T16:51:49.112Z,101004.63
2022-09-02T16:54:17.828Z,101007.09
2022-09-02T16:56:48.292Z,100991.06
2022-09-02T16:59:15.073Z,100988.66
2022-09-02T17:01:41.578Z,100988.66
2022-09-02T17:04:08.764Z,100988.41
2022-09-02T17:06:41.894Z,100992.78
2022-09-02T17:09:09.291Z,100993.88
2022-09-02T17:11:39.670Z,100985.69
2022-09-02T17:14:11.887Z,100991.44
2022-09-02T17:16:44.413Z,100990.91
2022-09-02T17:19:11.737Z,100987.13
2022-09-02T17:21:43.823Z,100989.63
2022-09-02T17:24:13.343Z,100986.13
2022-09-02T17:26:42.913Z,100983.97
2022-09-02T17:29:46.823Z,100977.97
2022-09-02T17:32:05.589Z,100990.59
2022-09-02T17:34:34.030Z,100987.88
2022-09-02T17:37:00.556Z,100990.38
2022-09-02T17:39:27.090Z,100986.56
2022-09-02T17:41:59.473Z,100989.09
2022-09-02T17:44:34.915Z,100990.00
2022-09-02T17:47:06.667Z,100992.50
2022-09-02T17:49:35.479Z,100991.97
2022-09-02T17:52:03.233Z,100989.56
2022-09-02T17:54:29.898Z,100987.94
2022-09-02T17:57:14.947Z,100995.34
2022-09-02T17:59:47.171Z,100995.91
2022-09-02T18:02:35.653Z,100994.63
2022-09-02T18:05:29.550Z,100999.28
2022-09-02T18:08:29.981Z,101001.50
2022-09-02T18:10:58.444Z,100988.44
2022-09-02T18:13:32.348Z,100993.94
2022-09-02T18:16:23.295Z,100995.56
2022-09-02T18:19:13.991Z,100993.66
2022-09-02T18:22:11.381Z,101000.22
2022-09-02T18:24:56.302Z,100997.25
2022-09-02T18:28:07.432Z,100979.00
2022-09-02T18:30:52.684Z,101002.16
2022-09-02T18:33:34.233Z,100999.72
2022-09-02T18:36:15.598Z,101008.19
2022-09-02T18:39:14.481Z,100996.75
2022-09-02T18:42:26.095Z,101005.69
2022-09-02T18:45:16.326Z,101009.78
2022-09-02T18:47:50.972Z,101009.75
2022-09-02T18:50:52.246Z,101004.03
2022-09-02T18:53:23.142Z,101006.47
2022-09-02T18:55:51.974Z,100981.41
2022-09-02T18:58:39.182Z,101008.06
2022-09-02T19:01:16.628Z,101007.53
2022-09-02T19:03:43.619Z,101004.53
2022-09-02T19:06:17.635Z,100996.56
2022-09-02T19:08:46.348Z,101010.16
2022-09-02T19:11:17.933Z,101016.97
2022-09-02T19:13:49.195Z,101018.31
2022-09-02T19:16:18.252Z,101013.41
2022-09-02T19:18:45.404Z,101019.34
2022-09-02T19:21:17.597Z,101021.81
2022-09-02T19:23:45.743Z,101018.75
2022-09-02T19:26:13.601Z,101014.94
2022-09-02T19:28:41.427Z,101019.00
2022-09-02T19:31:12.707Z,101020.56
2022-09-02T19:33:44.384Z,101016.50
2022-09-02T19:36:10.901Z,101024.66
2022-09-02T19:38:38.937Z,101021.91
2022-09-02T19:41:05.484Z,101021.91
2022-09-02T19:43:31.869Z,101027.06
2022-09-02T19:45:59.834Z,101034.63
2022-09-02T19:48:26.401Z,101034.84
2022-09-02T19:50:52.936Z,101033.75
2022-09-02T19:53:23.627Z,101024.53
2022-09-02T19:55:51.122Z,101023.19
2022-09-02T19:58:17.953Z,101013.94
2022-09-02T20:00:44.677Z,101029.75
2022-09-02T20:03:11.971Z,101027.31
2022-09-02T20:05:40.378Z,101032.75
2022-09-02T20:08:09.101Z,101032.50
2022-09-02T20:10:37.573Z,101030.56
2022-09-02T20:13:04.405Z,101035.16
2022-09-02T20:15:31.168Z,101040.00
2022-09-02T20:18:10.608Z,101039.16
2022-09-02T20:20:37.453Z,101038.03
2022-09-02T20:23:04.128Z,101040.75
2022-09-02T20:25:58.723Z,101036.34
2022-09-02T20:28:29.032Z,101034.63
2022-09-02T20:31:15.358Z,101035.13
2022-09-02T20:33:55.906Z,101018.09
2022-09-02T20:36:34.782Z,101034.91
2022-09-02T20:39:22.709Z,101035.13
2022-09-02T20:42:15.738Z,101034.03
2022-09-02T20:45:07.897Z,101032.63
2022-09-02T20:47:46.501Z,101022.34
2022-09-02T20:50:18.962Z,101034.59
2022-09-02T20:52:51.336Z,101027.81
2022-09-02T20:55:38.456Z,101011.22
2022-09-02T20:58:36.065Z,100998.75
2022-09-02T21:01:08.466Z,101021.88
2022-09-02T21:03:43.517Z,101015.13
2022-09-02T21:06:10.961Z,101019.19
2022-09-02T21:09:03.199Z,101010.22
2022-09-02T21:11:38.866Z,101024.06
2022-09-02T21:14:13.634Z,101009.59
2022-09-02T21:16:48.106Z,100992.66
2022-09-02T21:19:43.726Z,101016.03
2022-09-02T21:22:24.926Z,101016.56
2022-09-02T21:24:54.654Z,100998.59
2022-09-02T21:27:27.037Z,101013.53
2022-09-02T21:30:08.331Z,101017.34
2022-09-02T21:32:51.860Z,101013.50
2022-09-02T21:35:27.251Z,100994.63
2022-09-02T21:37:59.165Z,101010.94
2022-09-02T21:40:40.298Z,101006.84
2022-09-02T21:43:45.594Z,101006.56
2022-09-02T21:46:21.132Z,101002.44
2022-09-02T21:49:01.734Z,100996.69
2022-09-02T21:51:41.830Z,100999.09
2022-09-02T21:54:36.614Z,100998.53
2022-09-02T21:57:30.473Z,100997.69
2022-09-02T22:00:01.090Z,100986.22
2022-09-02T22:02:40.116Z,100995.16
2022-09-02T22:05:25.141Z,100999.44
2022-09-02T22:08:11.275Z,100998.31
2022-09-02T22:10:43.390Z,100990.94
2022-09-02T22:13:10.600Z,100986.50
2022-09-02T22:15:55.855Z,100986.59
2022-09-02T22:18:35.943Z,100988.13
2022-09-02T22:21:17.051Z,100976.22
2022-09-02T22:23:44.187Z,100983.75
2022-09-02T22:26:28.724Z,100983.09
2022-09-02T22:29:03.931Z,100983.94
2022-09-02T22:31:35.881Z,100977.88
2022-09-02T22:34:05.489Z,100976.22
2022-09-02T22:36:56.236Z,100972.66
2022-09-02T22:39:50.540Z,100981.75
2022-09-02T22:42:25.641Z,100979.50
2022-09-02T22:45:34.261Z,100963.53
2022-09-02T22:48:29.774Z,100969.75
2022-09-02T22:51:19.406Z,100980.41
2022-09-02T22:53:47.987Z,100982.06
2022-09-02T22:56:21.536Z,100979.78
2022-09-02T22:59:19.948Z,100982.16
2022-09-02T23:01:58.832Z,100979.38
2022-09-02T23:04:55.362Z,100982.81
2022-09-02T23:07:23.669Z,100981.69
2022-09-02T23:09:54.850Z,100975.38
2022-09-02T23:12:41.464Z,100980.47
2022-09-02T23:15:18.296Z,100969.97
2022-09-02T23:18:03.413Z,100979.16
2022-09-02T23:20:45.357Z,100976.84
2022-09-02T23:23:38.898Z,100976.84
2022-09-02T23:26:38.414Z,100970.63
2022-09-02T23:29:18.551Z,100966.25
2022-09-02T23:32:04.442Z,100936.06
2022-09-02T23:35:12.720Z,100971.56
2022-09-02T23:37:57.336Z,100966.97
2022-09-02T23:40:37.654Z,100964.13
2022-09-02T23:43:04.227Z,100969.78
2022-09-02T23:45:33.742Z,100958.94
2022-09-02T23:48:43.964Z,100955.09
2022-09-02T23:51:19.330Z,100957.63
2022-09-02T23:54:03.672Z,100956.00
2022-09-02T23:56:46.430Z,100954.34
2022-09-02T23:59:47.026Z,100952.63
